Terminal Aerodrome Forecast
Issued by NWS

Current Version | Previous Version | Graphics & Text | Print | Product List | Glossary On
Versions: 1 2 3 4 5 6 7 8 9 10 11 12 13 14 15 16 17 18 19 20 21 22 23 24 25 26 27 28 29 30 31 32 33 34 35 36 37 38
000
FTUS41 KRNK 311727
TAFLWB
TAF
KLWB 311727Z 3118/0118 25007KT P6SM VCSH BKN035 OVC045
     FM312000 25007KT P6SM -SHRA VCTS OVC040CB
     FM010200 25003KT 5SM -SHRA OVC035
     FM010800 00000KT 2SM BR BKN080
     FM011000 00000KT 1/2SM FG BKN001
     FM011330 26004KT P6SM SCT010 BKN025
     FM011500 27007KT P6SM SCT035 SCT080=

USA.gov is the U.S. government's official web portal to all federal, state and local government web resources and services.